Time;durP1;ratioP1;P1;durP2;ratioP2;P2;SDS_P1;SDS_P2;PMS_P1;PMS_P2;Temp;Humidity;BMP_temperature;BMP_pressure;BME280_temperature;BME280_humidity;BME280_pressure;Samples;Min_cycle;Max_cycle;Signal;HPM_P1;HPM_P2
2022/03/27 00:01:59;;;;;;;;;;;18.90;56.80;;;;;;5012862;28;858;-72
2022/03/27 00:04:24;;;;;;;;;;;18.90;56.80;;;;;;5011552;28;1287;-71
2022/03/27 00:06:50;;;;;;;;;;;18.90;56.80;;;;;;5012560;28;898;-72
2022/03/27 00:09:15;;;;;;;;;;;18.90;56.90;;;;;;5012955;28;914;-72
2022/03/27 00:11:41;;;;;;;;;;;18.90;56.90;;;;;;5012892;28;891;-71
2022/03/27 00:14:06;;;;;;;;;;;18.90;56.90;;;;;;5027857;28;1284;-71
2022/03/27 00:16:32;;;;;;;;;;;18.90;57.00;;;;;;5012456;28;824;-72
2022/03/27 00:18:57;;;;;;;;;;;18.90;57.00;;;;;;5012655;28;1890;-71
2022/03/27 00:21:23;;;;;;;;;;;18.90;57.00;;;;;;5013065;28;847;-71
2022/03/27 00:23:49;;;;;;;;;;;18.90;57.00;;;;;;5012818;28;1193;-71
2022/03/27 00:26:15;;;;;;;;;;;18.90;57.10;;;;;;5012134;28;788;-71
2022/03/27 00:28:40;;;;;;;;;;;18.90;57.00;;;;;;5030822;28;1271;-72
2022/03/27 00:31:06;;;;;;;;;;;18.90;57.10;;;;;;5032013;28;1017;-71
2022/03/27 00:33:31;;;;;;;;;;;18.90;57.10;;;;;;5035102;28;895;-71
2022/03/27 00:35:57;;;;;;;;;;;18.90;57.70;;;;;;5033010;28;1279;-72
2022/03/27 00:38:23;;;;;;;;;;;18.80;57.10;;;;;;5015513;28;1041;-71
2022/03/27 00:40:51;;;;;;;;;;;18.80;57.10;;;;;;5015390;28;1902;-72
2022/03/27 00:43:17;;;;;;;;;;;18.80;57.10;;;;;;5015191;28;865;-71
2022/03/27 00:45:43;;;;;;;;;;;18.80;57.20;;;;;;5014766;28;1221;-72
2022/03/27 00:48:08;;;;;;;;;;;18.80;57.20;;;;;;5016518;28;1049;-72
2022/03/27 00:50:34;;;;;;;;;;;18.80;57.20;;;;;;5015450;28;875;-71
2022/03/27 00:53:00;;;;;;;;;;;18.80;57.20;;;;;;5016920;28;839;-72
2022/03/27 00:55:25;;;;;;;;;;;18.80;57.20;;;;;;5016026;28;1209;-71
2022/03/27 00:57:51;;;;;;;;;;;18.80;57.20;;;;;;5014532;28;784;-72
2022/03/27 01:00:36;;;;;;;;;;;18.80;57.20;;;;;;5015014;28;1902;-72
2022/03/27 01:03:02;;;;;;;;;;;18.80;57.30;;;;;;5014907;28;753;-71
2022/03/27 01:05:29;;;;;;;;;;;18.80;57.30;;;;;;5016417;28;1193;-71
2022/03/27 01:07:55;;;;;;;;;;;18.80;57.30;;;;;;5016074;28;907;-71
2022/03/27 01:10:22;;;;;;;;;;;18.70;57.30;;;;;;5014859;28;812;-72
2022/03/27 01:12:47;;;;;;;;;;;18.80;57.30;;;;;;5014962;28;796;-72
2022/03/27 01:15:33;;;;;;;;;;;18.80;57.30;;;;;;5014434;28;1502;-71
2022/03/27 01:17:58;;;;;;;;;;;18.80;57.30;;;;;;5016111;28;1039;-71
2022/03/27 01:20:32;;;;;;;;;;;18.80;57.30;;;;;;5014817;28;1977;-71
2022/03/27 01:22:58;;;;;;;;;;;18.70;57.30;;;;;;5015894;28;815;-71
2022/03/27 01:25:23;;;;;;;;;;;18.70;57.30;;;;;;5015950;28;1204;-72
2022/03/27 01:27:49;;;;;;;;;;;18.70;57.40;;;;;;5015045;28;887;-71
2022/03/27 01:30:14;;;;;;;;;;;18.70;57.90;;;;;;5015735;28;1089;-71
2022/03/27 01:32:39;;;;;;;;;;;18.70;57.40;;;;;;5015683;28;1022;-72
2022/03/27 01:35:05;;;;;;;;;;;18.70;57.40;;;;;;5015537;28;1207;-71
2022/03/27 01:37:31;;;;;;;;;;;18.70;57.40;;;;;;5015255;28;1202;-71
2022/03/27 01:39:56;;;;;;;;;;;18.70;57.40;;;;;;5015657;28;1902;-71
2022/03/27 01:42:22;;;;;;;;;;;18.70;57.40;;;;;;5014226;28;891;-72
2022/03/27 01:44:47;;;;;;;;;;;18.70;57.50;;;;;;5014819;28;1274;-72
2022/03/27 01:47:13;;;;;;;;;;;18.70;57.50;;;;;;5014995;28;998;-72
2022/03/27 01:49:40;;;;;;;;;;;18.70;57.50;;;;;;5015312;28;898;-73
2022/03/27 01:52:05;;;;;;;;;;;18.70;57.50;;;;;;5015634;28;1025;-71
2022/03/27 01:54:31;;;;;;;;;;;18.70;57.50;;;;;;5014799;28;1213;-72
2022/03/27 01:56:56;;;;;;;;;;;18.70;57.50;;;;;;5015015;28;958;-71
2022/03/27 01:59:22;;;;;;;;;;;18.70;57.50;;;;;;5014902;28;1967;-71
2022/03/27 02:01:47;;;;;;;;;;;18.70;57.50;;;;;;5015512;28;811;-71
2022/03/27 02:04:13;;;;;;;;;;;18.60;57.50;;;;;;5014826;28;1200;-73
2022/03/27 02:06:39;;;;;;;;;;;18.60;57.50;;;;;;5014319;28;851;-72
2022/03/27 02:09:05;;;;;;;;;;;18.60;57.50;;;;;;5013549;28;860;-73
2022/03/27 02:11:30;;;;;;;;;;;18.60;57.50;;;;;;5014514;28;903;-72
2022/03/27 02:13:56;;;;;;;;;;;18.60;57.50;;;;;;5013575;28;1199;-72
2022/03/27 02:16:21;;;;;;;;;;;18.60;57.60;;;;;;5012940;28;915;-72
2022/03/27 02:18:47;;;;;;;;;;;18.60;57.60;;;;;;5013146;28;1961;-72
2022/03/27 02:21:12;;;;;;;;;;;18.60;57.50;;;;;;5013302;28;800;-72
2022/03/27 02:23:38;;;;;;;;;;;18.60;57.60;;;;;;5013395;28;831;-72
2022/03/27 02:26:03;;;;;;;;;;;18.60;57.60;;;;;;5012236;28;1316;-72
2022/03/27 02:28:28;;;;;;;;;;;18.60;57.60;;;;;;5012954;28;1094;-73
2022/03/27 02:30:54;;;;;;;;;;;18.60;57.60;;;;;;5013132;28;820;-72
2022/03/27 02:33:19;;;;;;;;;;;18.60;57.60;;;;;;5014612;28;855;-72
2022/03/27 02:35:45;;;;;;;;;;;18.60;57.60;;;;;;5013929;28;1192;-72
2022/03/27 02:38:10;;;;;;;;;;;18.60;57.60;;;;;;5014424;28;839;-72
2022/03/27 02:40:36;;;;;;;;;;;18.60;57.60;;;;;;5013898;28;1958;-72
2022/03/27 02:43:02;;;;;;;;;;;18.60;57.60;;;;;;5013806;28;1045;-73
2022/03/27 02:45:28;;;;;;;;;;;18.60;57.60;;;;;;5012503;28;1200;-72
2022/03/27 02:47:53;;;;;;;;;;;18.60;58.20;;;;;;5013256;28;860;-72
2022/03/27 02:50:19;;;;;;;;;;;18.60;57.60;;;;;;5012707;28;816;-72
2022/03/27 02:52:44;;;;;;;;;;;18.60;57.60;;;;;;5012864;28;821;-72
2022/03/27 02:55:10;;;;;;;;;;;18.60;57.60;;;;;;5011385;28;2593;-72
2022/03/27 02:57:36;;;;;;;;;;;18.60;57.50;;;;;;5013779;28;800;-72
2022/03/27 03:00:02;;;;;;;;;;;18.60;57.50;;;;;;5028989;28;1894;-73
2022/03/27 03:02:28;;;;;;;;;;;18.70;57.60;;;;;;5013820;28;847;-73
2022/03/27 03:04:55;;;;;;;;;;;18.70;57.50;;;;;;5013671;28;1206;-72
2022/03/27 03:07:20;;;;;;;;;;;18.70;57.50;;;;;;5013173;28;860;-71
2022/03/27 03:09:46;;;;;;;;;;;18.70;57.50;;;;;;5013906;28;791;-71
2022/03/27 03:12:11;;;;;;;;;;;18.60;57.40;;;;;;5013934;28;879;-72
2022/03/27 03:14:36;;;;;;;;;;;18.60;57.40;;;;;;5013767;28;1189;-71
2022/03/27 03:17:04;;;;;;;;;;;18.70;57.50;;;;;;5013250;28;871;-72
2022/03/27 03:19:29;;;;;;;;;;;18.70;57.40;;;;;;5013978;28;1961;-72
2022/03/27 03:21:55;;;;;;;;;;;18.70;57.40;;;;;;5013848;28;816;-71
2022/03/27 03:24:20;;;;;;;;;;;18.60;57.40;;;;;;5013726;28;1275;-71
2022/03/27 03:26:47;;;;;;;;;;;18.70;57.40;;;;;;5015974;28;1271;-72
2022/03/27 03:29:13;;;;;;;;;;;18.70;57.50;;;;;;5033392;28;815;-71
2022/03/27 03:31:39;;;;;;;;;;;18.70;57.40;;;;;;5033376;28;831;-71
2022/03/27 03:34:04;;;;;;;;;;;18.70;57.40;;;;;;5033476;28;1215;-72
2022/03/27 03:36:30;;;;;;;;;;;18.70;57.40;;;;;;5032788;28;891;-72
2022/03/27 03:38:55;;;;;;;;;;;18.70;57.40;;;;;;5033365;28;1902;-71
2022/03/27 03:41:20;;;;;;;;;;;18.70;57.40;;;;;;5033166;28;926;-71
2022/03/27 03:43:46;;;;;;;;;;;18.70;57.40;;;;;;5033211;28;1306;-72
2022/03/27 03:46:11;;;;;;;;;;;18.70;57.40;;;;;;5031552;28;1367;-72
2022/03/27 03:48:37;;;;;;;;;;;18.70;57.50;;;;;;5033193;28;886;-71
2022/03/27 03:51:02;;;;;;;;;;;18.70;57.40;;;;;;5033075;28;899;-71
2022/03/27 03:53:28;;;;;;;;;;;18.60;57.40;;;;;;5032896;28;958;-72
2022/03/27 03:55:54;;;;;;;;;;;18.70;57.40;;;;;;5045273;22;3750;-70
2022/03/27 03:58:19;;;;;;;;;;;18.60;57.40;;;;;;5031997;28;847;-70
2022/03/27 04:00:46;;;;;;;;;;;18.70;57.40;;;;;;5047987;28;1961;-69
2022/03/27 04:03:13;;;;;;;;;;;18.70;57.40;;;;;;5031567;28;1437;-70
2022/03/27 04:05:38;;;;;;;;;;;18.70;57.40;;;;;;5032212;28;1306;-70
2022/03/27 04:08:04;;;;;;;;;;;18.70;57.40;;;;;;5036542;28;699;-70
2022/03/27 04:10:29;;;;;;;;;;;18.70;57.40;;;;;;5039121;28;910;-70
2022/03/27 04:12:54;;;;;;;;;;;18.70;57.40;;;;;;5039002;28;1009;-70
2022/03/27 04:15:20;;;;;;;;;;;18.70;57.40;;;;;;5039359;28;1280;-70
2022/03/27 04:17:46;;;;;;;;;;;18.70;57.40;;;;;;5020725;28;978;-70
2022/03/27 04:20:12;;;;;;;;;;;18.70;57.50;;;;;;5037721;28;1895;-70
2022/03/27 04:22:38;;;;;;;;;;;18.70;58.00;;;;;;5037816;28;835;-70
2022/03/27 04:25:04;;;;;;;;;;;18.60;57.40;;;;;;5039153;28;1300;-70
2022/03/27 04:27:29;;;;;;;;;;;18.60;57.40;;;;;;5045709;28;1409;-70
2022/03/27 04:29:55;;;;;;;;;;;18.70;57.50;;;;;;5058993;28;871;-70
2022/03/27 04:32:20;;;;;;;;;;;18.60;57.40;;;;;;5058660;28;895;-70
2022/03/27 04:34:50;;;;;;;;;;;18.70;57.50;;;;;;5058889;28;1219;-70
2022/03/27 04:37:16;;;;;;;;;;;18.60;57.40;;;;;;5044562;28;1106;-70
2022/03/27 04:39:41;;;;;;;;;;;18.60;57.40;;;;;;5038836;28;1910;-70
2022/03/27 04:42:07;;;;;;;;;;;18.60;57.40;;;;;;5038921;28;939;-70
2022/03/27 04:44:32;;;;;;;;;;;18.60;57.40;;;;;;5038879;28;1299;-70
2022/03/27 04:46:57;;;;;;;;;;;18.60;57.40;;;;;;5038383;28;907;-70
2022/03/27 04:49:23;;;;;;;;;;;18.60;57.40;;;;;;5038872;28;1058;-70
2022/03/27 04:51:49;;;;;;;;;;;18.60;57.40;;;;;;5038861;28;993;-69
2022/03/27 04:54:14;;;;;;;;;;;18.60;57.40;;;;;;5037598;28;863;-70
2022/03/27 04:56:40;;;;;;;;;;;18.60;57.40;;;;;;5037996;28;1227;-69
2022/03/27 04:59:05;;;;;;;;;;;18.60;57.50;;;;;;5038492;28;1959;-70
2022/03/27 05:01:30;;;;;;;;;;;18.60;57.50;;;;;;5038691;28;938;-70
2022/03/27 05:03:56;;;;;;;;;;;18.60;57.50;;;;;;5037391;28;1388;-69
2022/03/27 05:06:21;;;;;;;;;;;18.60;57.50;;;;;;5038615;28;1213;-69
2022/03/27 05:08:47;;;;;;;;;;;18.60;57.50;;;;;;5038576;28;703;-70
2022/03/27 05:11:12;;;;;;;;;;;18.60;57.50;;;;;;5037265;28;765;-70
2022/03/27 05:13:38;;;;;;;;;;;18.60;57.50;;;;;;5038611;28;807;-69
2022/03/27 05:16:03;;;;;;;;;;;18.60;57.50;;;;;;5038047;28;1208;-69
2022/03/27 05:18:29;;;;;;;;;;;18.60;57.50;;;;;;5037747;28;1093;-69
2022/03/27 05:20:54;;;;;;;;;;;18.60;57.50;;;;;;5035394;28;1953;-70
2022/03/27 05:23:20;;;;;;;;;;;18.60;57.50;;;;;;5034232;28;912;-69
2022/03/27 05:25:48;;;;;;;;;;;18.60;57.50;;;;;;5033195;28;1203;-70
2022/03/27 05:28:14;;;;;;;;;;;18.60;57.50;;;;;;5049018;28;1291;-69
2022/03/27 05:30:39;;;;;;;;;;;18.60;57.50;;;;;;5053870;28;1476;-69
2022/03/27 05:33:05;;;;;;;;;;;18.60;57.50;;;;;;5053933;28;815;-69
2022/03/27 05:35:30;;;;;;;;;;;18.60;57.50;;;;;;5054686;28;1284;-70
2022/03/27 05:37:56;;;;;;;;;;;18.60;57.50;;;;;;5050251;28;1154;-70
2022/03/27 05:40:22;;;;;;;;;;;18.60;57.50;;;;;;5050381;28;1930;-69
2022/03/27 05:42:47;;;;;;;;;;;18.60;57.50;;;;;;5035072;28;777;-69
2022/03/27 05:45:13;;;;;;;;;;;18.60;57.50;;;;;;5035136;28;1206;-69
2022/03/27 05:47:41;;;;;;;;;;;18.60;57.50;;;;;;5050182;28;906;-69
2022/03/27 05:50:07;;;;;;;;;;;18.70;57.40;;;;;;5049896;28;826;-69
2022/03/27 05:52:32;;;;;;;;;;;18.70;57.40;;;;;;5035018;28;1028;-69
2022/03/27 05:54:58;;;;;;;;;;;18.70;57.30;;;;;;5034776;28;1224;-70
2022/03/27 05:57:24;;;;;;;;;;;18.70;57.20;;;;;;5034067;28;871;-69
2022/03/27 05:59:49;;;;;;;;;;;18.70;57.10;;;;;;5034689;28;1956;-69
2022/03/27 06:02:15;;;;;;;;;;;18.80;57.00;;;;;;5034720;28;1115;-69
2022/03/27 06:04:40;;;;;;;;;;;18.80;56.90;;;;;;5034376;28;1313;-69
2022/03/27 06:07:06;;;;;;;;;;;18.90;56.90;;;;;;5032991;28;1548;-70
2022/03/27 06:09:33;;;;;;;;;;;18.90;56.80;;;;;;5050219;28;815;-69
2022/03/27 06:11:58;;;;;;;;;;;18.90;56.80;;;;;;5034687;28;859;-70
2022/03/27 06:14:24;;;;;;;;;;;18.90;56.70;;;;;;5034628;28;1274;-69
2022/03/27 06:16:49;;;;;;;;;;;18.90;56.70;;;;;;5033742;28;890;-69
2022/03/27 06:19:14;;;;;;;;;;;19.00;56.60;;;;;;5034293;28;1890;-69
2022/03/27 06:21:40;;;;;;;;;;;19.00;56.60;;;;;;5032736;28;1671;-69
2022/03/27 06:24:05;;;;;;;;;;;19.00;56.50;;;;;;5034413;28;895;-69
2022/03/27 06:26:31;;;;;;;;;;;19.00;56.50;;;;;;5034093;28;1239;-69
2022/03/27 06:28:56;;;;;;;;;;;19.00;57.10;;;;;;5053016;28;950;-69
2022/03/27 06:31:21;;;;;;;;;;;19.00;56.50;;;;;;5053553;28;950;-69
2022/03/27 06:33:47;;;;;;;;;;;19.00;56.40;;;;;;5052503;28;935;-69
2022/03/27 06:36:13;;;;;;;;;;;19.00;56.40;;;;;;5047920;28;1217;-69
2022/03/27 06:38:38;;;;;;;;;;;19.10;56.40;;;;;;5034146;28;891;-69
2022/03/27 06:41:04;;;;;;;;;;;19.10;56.40;;;;;;5032555;28;1898;-69
2022/03/27 06:43:29;;;;;;;;;;;19.10;56.30;;;;;;5034225;28;855;-69
2022/03/27 06:45:55;;;;;;;;;;;19.20;56.20;;;;;;5033217;28;1299;-69
2022/03/27 06:48:20;;;;;;;;;;;19.30;56.10;;;;;;5033754;28;863;-69
2022/03/27 06:50:45;;;;;;;;;;;19.30;55.90;;;;;;5033624;28;828;-69
2022/03/27 06:53:14;;;;;;;;;;;19.40;55.80;;;;;;5033760;28;866;-69
2022/03/27 06:55:40;;;;;;;;;;;19.50;55.70;;;;;;5033333;28;1201;-69
2022/03/27 06:58:05;;;;;;;;;;;19.60;55.60;;;;;;5033726;28;617;-69
2022/03/27 07:03:15;;;;;;;;;;;19.80;55.20;;;;;;5030209;28;1019;-69
2022/03/27 07:05:41;;;;;;;;;;;19.90;55.00;;;;;;5032856;28;1311;-69
2022/03/27 07:08:07;;;;;;;;;;;20.00;54.80;;;;;;5032146;28;1196;-71
2022/03/27 07:10:33;;;;;;;;;;;20.00;54.60;;;;;;5022377;28;1259;-72
2022/03/27 07:12:58;;;;;;;;;;;20.10;54.50;;;;;;5021379;28;1207;-70
2022/03/27 07:15:24;;;;;;;;;;;20.10;54.90;;;;;;5021070;28;1275;-70
2022/03/27 07:17:50;;;;;;;;;;;20.20;55.00;;;;;;5021617;28;1207;-70
2022/03/27 07:20:16;;;;;;;;;;;20.20;54.90;;;;;;5021283;28;1890;-70
2022/03/27 07:22:43;;;;;;;;;;;20.30;55.00;;;;;;5019643;28;1188;-70
2022/03/27 07:25:09;;;;;;;;;;;20.30;55.10;;;;;;5024023;28;1382;-69
2022/03/27 07:27:35;;;;;;;;;;;20.30;55.20;;;;;;5040609;28;1500;-69
2022/03/27 07:30:01;;;;;;;;;;;20.30;55.30;;;;;;5052813;28;850;-70
2022/03/27 07:32:26;;;;;;;;;;;20.30;55.30;;;;;;5036401;28;2251;-69
2022/03/27 07:34:51;;;;;;;;;;;20.40;55.40;;;;;;5031889;28;1530;-70
2022/03/27 07:37:17;;;;;;;;;;;20.40;55.40;;;;;;5032288;28;1698;-70
2022/03/27 07:39:42;;;;;;;;;;;20.40;55.40;;;;;;5032638;28;1949;-70
2022/03/27 07:42:08;;;;;;;;;;;20.40;55.60;;;;;;5031203;28;756;-70
2022/03/27 07:44:33;;;;;;;;;;;20.40;55.70;;;;;;5031684;28;1306;-70
2022/03/27 07:46:59;;;;;;;;;;;20.40;55.90;;;;;;5032428;28;806;-70
2022/03/27 07:49:26;;;;;;;;;;;20.40;56.00;;;;;;5033000;28;910;-70
2022/03/27 07:51:52;;;;;;;;;;;20.40;56.10;;;;;;5032671;28;878;-69
2022/03/27 07:54:17;;;;;;;;;;;20.30;56.20;;;;;;5031733;28;815;-70
2022/03/27 07:56:43;;;;;;;;;;;20.30;56.10;;;;;;5032183;28;1235;-70
2022/03/27 07:59:08;;;;;;;;;;;20.30;56.10;;;;;;5032846;28;1902;-70
2022/03/27 08:01:34;;;;;;;;;;;20.30;56.20;;;;;;5032662;28;810;-69
2022/03/27 08:04:00;;;;;;;;;;;20.30;56.30;;;;;;5032643;28;910;-69
2022/03/27 08:06:26;;;;;;;;;;;20.30;56.40;;;;;;5031899;28;1170;-69
2022/03/27 08:08:51;;;;;;;;;;;20.30;56.40;;;;;;5032503;28;1080;-70
2022/03/27 08:11:16;;;;;;;;;;;20.30;56.50;;;;;;5032941;28;966;-70
2022/03/27 08:13:43;;;;;;;;;;;20.30;56.70;;;;;;5032651;28;765;-69
2022/03/27 08:16:08;;;;;;;;;;;20.30;56.80;;;;;;5032094;28;1295;-69
2022/03/27 08:18:34;;;;;;;;;;;20.30;57.40;;;;;;5032888;28;931;-70
2022/03/27 08:20:59;;;;;;;;;;;20.20;56.80;;;;;;5032637;28;1898;-69
2022/03/27 08:23:25;;;;;;;;;;;20.20;56.90;;;;;;5032371;28;903;-69
2022/03/27 08:28:35;;;;;;;;;;;20.20;57.00;;;;;;5032605;28;1507;-71
2022/03/27 08:31:01;;;;;;;;;;;20.20;57.10;;;;;;5032798;28;743;-70
2022/03/27 08:33:27;;;;;;;;;;;20.20;57.40;;;;;;5032817;28;819;-71
2022/03/27 08:35:52;;;;;;;;;;;20.20;57.50;;;;;;5030017;28;1395;-70
2022/03/27 08:38:18;;;;;;;;;;;20.20;57.60;;;;;;5031204;28;930;-70
2022/03/27 08:40:44;;;;;;;;;;;20.10;57.50;;;;;;5032214;28;1906;-71
2022/03/27 08:43:10;;;;;;;;;;;20.20;57.60;;;;;;5032380;28;792;-71
2022/03/27 08:45:35;;;;;;;;;;;20.10;57.60;;;;;;5030434;28;1202;-71
2022/03/27 08:48:01;;;;;;;;;;;20.10;57.60;;;;;;5030950;28;1010;-69
2022/03/27 08:50:34;;;;;;;;;;;20.10;57.60;;;;;;5025504;28;1576;-70
2022/03/27 08:53:00;;;;;;;;;;;20.10;57.70;;;;;;5023748;28;1331;-72
2022/03/27 08:55:38;;;;;;;;;;;20.10;57.70;;;;;;5014041;28;1211;-70
2022/03/27 08:58:04;;;;;;;;;;;20.10;57.80;;;;;;5015447;28;855;-70
2022/03/27 09:00:30;;;;;;;;;;;20.00;57.80;;;;;;5021871;28;2078;-70
2022/03/27 09:02:56;;;;;;;;;;;20.00;57.90;;;;;;5034988;28;1453;-69
2022/03/27 09:05:22;;;;;;;;;;;20.00;57.90;;;;;;5035016;28;1302;-70
2022/03/27 09:07:48;;;;;;;;;;;20.00;57.90;;;;;;5033526;28;820;-70
2022/03/27 09:10:13;;;;;;;;;;;20.00;58.00;;;;;;5033532;28;807;-71
2022/03/27 09:12:39;;;;;;;;;;;19.90;58.10;;;;;;5034995;28;774;-70
2022/03/27 09:15:04;;;;;;;;;;;19.90;58.00;;;;;;5033439;28;1195;-70
2022/03/27 09:17:30;;;;;;;;;;;19.90;58.10;;;;;;5031595;28;1330;-70
2022/03/27 09:19:55;;;;;;;;;;;19.90;58.20;;;;;;5034325;28;1886;-70
2022/03/27 09:22:31;;;;;;;;;;;19.90;58.30;;;;;;5032519;28;1280;-71
2022/03/27 09:24:57;;;;;;;;;;;19.90;58.30;;;;;;5033129;28;1295;-70
2022/03/27 09:27:33;;;;;;;;;;;19.90;58.50;;;;;;5041854;28;1606;-70
2022/03/27 09:30:09;;;;;;;;;;;19.90;58.60;;;;;;5053109;28;872;-70
2022/03/27 09:32:41;;;;;;;;;;;19.90;58.60;;;;;;5053804;28;826;-70
2022/03/27 09:35:11;;;;;;;;;;;19.80;58.60;;;;;;5053937;28;1298;-70
2022/03/27 09:37:37;;;;;;;;;;;19.80;58.60;;;;;;5036877;28;1410;-70
2022/03/27 09:40:03;;;;;;;;;;;19.80;58.80;;;;;;5033486;28;1947;-69
2022/03/27 09:42:29;;;;;;;;;;;19.80;58.80;;;;;;5035280;28;890;-70
2022/03/27 09:45:11;;;;;;;;;;;19.80;58.80;;;;;;5035136;28;1297;-71
2022/03/27 09:47:36;;;;;;;;;;;19.80;58.80;;;;;;5034537;28;857;-71
2022/03/27 09:50:02;;;;;;;;;;;19.80;58.90;;;;;;5033708;28;1073;-70
2022/03/27 09:52:27;;;;;;;;;;;19.80;59.00;;;;;;5034086;28;864;-70
2022/03/27 09:54:55;;;;;;;;;;;19.80;59.00;;;;;;5059508;22;1759;-74
2022/03/27 09:57:27;;;;;;;;;;;19.80;59.10;;;;;;5030170;28;2383;-73
2022/03/27 09:59:53;;;;;;;;;;;19.80;59.20;;;;;;5028140;28;1918;-72
2022/03/27 10:02:26;;;;;;;;;;;19.80;59.20;;;;;;5034955;28;1499;-72
2022/03/27 10:04:51;;;;;;;;;;;19.80;59.20;;;;;;5034468;28;1363;-73
2022/03/27 10:07:17;;;;;;;;;;;19.80;59.20;;;;;;5034741;28;1519;-73
2022/03/27 10:09:42;;;;;;;;;;;19.80;59.20;;;;;;5035072;28;878;-73
2022/03/27 10:12:08;;;;;;;;;;;19.80;59.30;;;;;;5033835;28;969;-72
2022/03/27 10:14:34;;;;;;;;;;;19.70;59.20;;;;;;5035108;28;894;-72
2022/03/27 10:17:00;;;;;;;;;;;19.80;59.30;;;;;;5032784;28;1203;-73
2022/03/27 10:19:34;;;;;;;;;;;19.80;59.40;;;;;;5017141;28;1894;-72
2022/03/27 10:22:01;;;;;;;;;;;19.80;59.40;;;;;;5034833;28;811;-72
2022/03/27 10:24:28;;;;;;;;;;;19.80;59.50;;;;;;5017002;28;1307;-72
2022/03/27 10:26:55;;;;;;;;;;;19.70;59.40;;;;;;5033320;28;1627;-72
2022/03/27 10:29:21;;;;;;;;;;;19.70;59.50;;;;;;5033734;28;2228;-72
2022/03/27 10:31:46;;;;;;;;;;;19.70;59.40;;;;;;5026760;28;2000;-73
2022/03/27 10:34:13;;;;;;;;;;;19.70;59.50;;;;;;5013769;28;1451;-73
2022/03/27 10:36:45;;;;;;;;;;;19.60;59.50;;;;;;5016592;28;1621;-73
2022/03/27 10:39:28;;;;;;;;;;;19.70;59.60;;;;;;5034363;28;1898;-72
2022/03/27 10:42:03;;;;;;;;;;;19.60;59.60;;;;;;5033294;28;891;-72
2022/03/27 10:44:34;;;;;;;;;;;19.60;59.60;;;;;;5033186;28;859;-72
2022/03/27 10:47:09;;;;;;;;;;;19.60;59.50;;;;;;5032745;28;1312;-73
2022/03/27 10:49:35;;;;;;;;;;;19.70;59.60;;;;;;5033173;28;1073;-73
2022/03/27 10:52:04;;;;;;;;;;;19.70;59.50;;;;;;5033064;28;946;-73
2022/03/27 10:54:29;;;;;;;;;;;19.70;59.60;;;;;;5033082;28;827;-72
2022/03/27 10:56:55;;;;;;;;;;;19.70;59.60;;;;;;5033297;28;1193;-72
2022/03/27 10:59:27;;;;;;;;;;;19.70;59.60;;;;;;5033911;28;1901;-71
2022/03/27 11:01:53;;;;;;;;;;;19.70;59.70;;;;;;5032911;28;982;-72
2022/03/27 11:04:19;;;;;;;;;;;19.70;59.80;;;;;;5032895;28;907;-71
2022/03/27 11:06:51;;;;;;;;;;;19.70;59.70;;;;;;5032437;28;1312;-71
2022/03/27 11:09:31;;;;;;;;;;;19.70;59.70;;;;;;5033869;28;894;-71
2022/03/27 11:11:57;;;;;;;;;;;19.70;59.80;;;;;;5033769;28;839;-71
2022/03/27 11:14:23;;;;;;;;;;;19.70;59.80;;;;;;5033994;28;930;-71
2022/03/27 11:17:09;;;;;;;;;;;19.70;59.80;;;;;;5032300;28;1219;-71
2022/03/27 11:19:47;;;;;;;;;;;19.70;59.90;;;;;;5033187;28;1942;-71
2022/03/27 11:22:31;;;;;;;;;;;19.60;60.00;;;;;;5032499;28;811;-71
2022/03/27 11:25:15;;;;;;;;;;;19.60;60.00;;;;;;5033471;28;1348;-71
2022/03/27 11:27:59;;;;;;;;;;;19.60;60.00;;;;;;5033140;28;823;-71
2022/03/27 11:30:25;;;;;;;;;;;19.60;60.00;;;;;;5033081;28;1006;-71
2022/03/27 11:33:11;;;;;;;;;;;19.60;60.90;;;;;;5033335;28;773;-71
2022/03/27 11:35:36;;;;;;;;;;;19.60;60.20;;;;;;5015509;28;1267;-71
2022/03/27 11:38:20;;;;;;;;;;;19.60;60.30;;;;;;5033327;28;898;-71
2022/03/27 11:40:46;;;;;;;;;;;19.60;60.30;;;;;;5033316;28;1906;-71
2022/03/27 11:43:28;;;;;;;;;;;19.60;60.40;;;;;;5032538;28;899;-71
2022/03/27 11:45:54;;;;;;;;;;;19.60;60.30;;;;;;5031891;28;1189;-71
2022/03/27 11:48:20;;;;;;;;;;;19.60;60.40;;;;;;5032250;28;855;-71
2022/03/27 11:50:45;;;;;;;;;;;19.60;60.50;;;;;;5031931;28;824;-71
2022/03/27 11:53:11;;;;;;;;;;;19.60;60.60;;;;;;5032243;28;790;-73
2022/03/27 11:55:37;;;;;;;;;;;19.60;60.70;;;;;;5033145;28;1313;-72
2022/03/27 11:58:03;;;;;;;;;;;19.60;60.60;;;;;;5033169;28;890;-72
2022/03/27 12:00:32;;;;;;;;;;;19.60;60.60;;;;;;5032989;28;1930;-73
2022/03/27 12:02:58;;;;;;;;;;;19.60;60.50;;;;;;5031962;28;1190;-70
2022/03/27 12:05:31;;;;;;;;;;;19.60;60.70;;;;;;5031836;28;1212;-70
2022/03/27 12:07:56;;;;;;;;;;;19.60;59.40;;;;;;5033227;28;1045;-70
2022/03/27 12:10:22;;;;;;;;;;;19.50;58.20;;;;;;5032954;28;878;-70
2022/03/27 12:12:55;;;;;;;;;;;19.50;57.40;;;;;;5031888;28;863;-70
2022/03/27 12:15:20;;;;;;;;;;;19.50;57.30;;;;;;5015293;28;1280;-70
2022/03/27 12:17:46;;;;;;;;;;;19.50;57.20;;;;;;5025264;28;2332;-70
2022/03/27 12:20:11;;;;;;;;;;;19.50;57.10;;;;;;5027804;28;1906;-70
2022/03/27 12:22:38;;;;;;;;;;;19.50;56.90;;;;;;5032899;28;1507;-70
2022/03/27 12:25:04;;;;;;;;;;;19.50;56.20;;;;;;5031750;28;1263;-70
2022/03/27 12:30:14;;;;;;;;;;;19.40;56.50;;;;;;5036617;28;796;-70
2022/03/27 12:32:39;;;;;;;;;;;19.40;55.90;;;;;;5035728;28;1282;-70
2022/03/27 12:35:06;;;;;;;;;;;19.40;55.10;;;;;;5036739;28;1207;-70
2022/03/27 12:37:33;;;;;;;;;;;19.30;55.50;;;;;;5035147;28;1424;-70
2022/03/27 12:40:02;;;;;;;;;;;19.40;55.80;;;;;;5036699;28;1967;-70
2022/03/27 12:42:29;;;;;;;;;;;19.30;56.00;;;;;;5036861;28;1072;-70
2022/03/27 12:44:54;;;;;;;;;;;19.30;55.90;;;;;;5034098;28;1392;-71
2022/03/27 12:47:33;;;;;;;;;;;19.30;56.10;;;;;;5033771;28;1283;-70
2022/03/27 12:49:59;;;;;;;;;;;19.30;55.90;;;;;;5035385;28;813;-70
2022/03/27 12:52:24;;;;;;;;;;;19.30;56.00;;;;;;5036520;28;756;-71
2022/03/27 12:54:56;;;;;;;;;;;19.30;56.10;;;;;;5035015;28;1224;-71
2022/03/27 12:57:22;;;;;;;;;;;19.30;56.10;;;;;;5034783;28;887;-71
2022/03/27 12:59:48;;;;;;;;;;;19.30;56.10;;;;;;5035179;28;1914;-71
2022/03/27 13:02:23;;;;;;;;;;;19.30;56.10;;;;;;5036314;28;803;-71
2022/03/27 13:05:00;;;;;;;;;;;19.30;56.10;;;;;;5035053;28;1212;-71
2022/03/27 13:07:54;;;;;;;;;;;19.20;56.10;;;;;;5034767;28;847;-71
2022/03/27 13:10:21;;;;;;;;;;;19.20;56.00;;;;;;5023031;28;1361;-71
2022/03/27 13:12:46;;;;;;;;;;;19.20;56.00;;;;;;5036176;28;830;-71
2022/03/27 13:15:11;;;;;;;;;;;19.20;56.00;;;;;;5033749;28;1618;-70
2022/03/27 13:17:37;;;;;;;;;;;19.20;55.90;;;;;;5015962;28;780;-74
2022/03/27 13:20:03;;;;;;;;;;;19.20;55.80;;;;;;5014965;28;1961;-73
2022/03/27 13:22:28;;;;;;;;;;;19.20;56.30;;;;;;4998328;28;1175;-73
2022/03/27 13:24:53;;;;;;;;;;;19.20;55.80;;;;;;4998484;28;1716;-73
2022/03/27 13:27:19;;;;;;;;;;;19.20;55.80;;;;;;5028638;28;1334;-73
2022/03/27 13:29:44;;;;;;;;;;;19.20;55.70;;;;;;5055709;28;1005;-73
2022/03/27 13:32:10;;;;;;;;;;;19.10;55.60;;;;;;5054480;28;934;-73
2022/03/27 13:34:37;;;;;;;;;;;19.10;55.50;;;;;;5055806;28;819;-73
2022/03/27 13:37:02;;;;;;;;;;;19.10;55.50;;;;;;5032279;28;2219;-73
2022/03/27 13:39:28;;;;;;;;;;;19.10;55.50;;;;;;5047554;28;1888;-74
2022/03/27 13:44:40;;;;;;;;;;;19.10;55.60;;;;;;5035709;28;1404;-75
2022/03/27 13:47:06;;;;;;;;;;;19.00;55.50;;;;;;5034005;28;1130;-74
2022/03/27 13:49:31;;;;;;;;;;;19.10;55.60;;;;;;5035419;28;1103;-75
2022/03/27 13:51:57;;;;;;;;;;;19.00;55.50;;;;;;5034345;28;807;-75
2022/03/27 13:54:22;;;;;;;;;;;19.00;55.50;;;;;;5017123;28;915;-73
2022/03/27 13:56:48;;;;;;;;;;;19.00;55.50;;;;;;5016640;28;1247;-71
2022/03/27 13:59:14;;;;;;;;;;;19.00;55.50;;;;;;5035103;28;1906;-72
2022/03/27 14:01:42;;;;;;;;;;;19.00;55.40;;;;;;5032758;28;1061;-73
2022/03/27 14:04:08;;;;;;;;;;;19.00;54.50;;;;;;5034019;28;958;-73
2022/03/27 14:06:34;;;;;;;;;;;19.00;53.00;;;;;;5035084;28;1278;-71
2022/03/27 14:08:59;;;;;;;;;;;19.00;54.30;;;;;;5035316;28;879;-73
2022/03/27 14:11:25;;;;;;;;;;;19.00;54.40;;;;;;5034015;28;860;-73
2022/03/27 14:13:50;;;;;;;;;;;19.00;54.30;;;;;;5033872;28;961;-73
2022/03/27 14:16:16;;;;;;;;;;;19.00;54.50;;;;;;5033472;28;1326;-73
2022/03/27 14:18:41;;;;;;;;;;;19.00;54.80;;;;;;5034703;28;704;-73
2022/03/27 14:21:06;;;;;;;;;;;19.00;54.80;;;;;;5033489;28;1898;-73
2022/03/27 14:23:32;;;;;;;;;;;19.00;55.00;;;;;;5016891;28;1010;-73
2022/03/27 14:25:59;;;;;;;;;;;19.00;55.10;;;;;;5034358;28;1204;-73
2022/03/27 14:28:25;;;;;;;;;;;19.00;55.10;;;;;;5033198;28;1322;-73
2022/03/27 14:30:51;;;;;;;;;;;19.00;55.10;;;;;;5054534;28;835;-73
2022/03/27 14:33:16;;;;;;;;;;;18.90;55.00;;;;;;5053368;28;827;-74
2022/03/27 14:35:42;;;;;;;;;;;18.90;55.00;;;;;;5053717;28;1193;-74
2022/03/27 14:38:08;;;;;;;;;;;18.90;54.40;;;;;;5034695;28;941;-74
2022/03/27 14:40:36;;;;;;;;;;;18.90;54.30;;;;;;5034524;28;1902;-74
2022/03/27 14:43:02;;;;;;;;;;;18.90;54.60;;;;;;5033236;28;831;-74
2022/03/27 14:45:27;;;;;;;;;;;18.90;54.80;;;;;;5034142;28;1203;-73